createdAt,value
2019-02-07T00:01:41.003Z,69.33
2019-02-07T00:04:09.993Z,70.27
2019-02-07T00:06:39.036Z,65.97
2019-02-07T00:09:10.005Z,72.27
2019-02-07T00:11:39.581Z,69.13
2019-02-07T00:14:08.773Z,74.10
2019-02-07T00:16:37.966Z,65.30
2019-02-07T00:19:06.997Z,68.40
2019-02-07T00:21:36.282Z,71.73
2019-02-07T00:24:05.277Z,85.03
2019-02-07T00:26:34.213Z,75.93
2019-02-07T00:29:03.410Z,68.40
2019-02-07T00:31:32.397Z,74.47
2019-02-07T00:34:01.360Z,62.40
2019-02-07T00:36:30.550Z,69.93
2019-02-07T00:38:59.801Z,75.90
2019-02-07T00:41:28.816Z,76.40
2019-02-07T00:43:58.021Z,79.87
2019-02-07T00:46:26.998Z,80.20
2019-02-07T00:48:56.108Z,76.30
2019-02-07T00:51:25.385Z,73.17
2019-02-07T00:53:54.322Z,69.10
2019-02-07T00:56:23.263Z,70.67
2019-02-07T00:58:52.418Z,80.10
2019-02-07T01:01:21.455Z,74.87
2019-02-07T01:03:50.534Z,72.00
2019-02-07T01:06:19.642Z,109.70
2019-02-07T01:08:48.680Z,51.60
2019-02-07T01:11:17.846Z,63.17
2019-02-07T01:13:47.154Z,54.13
2019-02-07T01:16:16.238Z,64.67
2019-02-07T01:18:45.274Z,58.40
2019-02-07T01:21:14.365Z,60.70
2019-02-07T01:23:43.547Z,56.17
2019-02-07T01:26:12.591Z,59.17
2019-02-07T01:28:41.986Z,44.53
2019-02-07T01:31:11.157Z,44.30
2019-02-07T01:33:40.389Z,48.30
2019-02-07T01:36:09.418Z,47.60
2019-02-07T01:38:38.478Z,46.53
2019-02-07T01:41:07.591Z,43.80
2019-02-07T01:43:37.070Z,38.30
2019-02-07T01:46:06.050Z,53.40
2019-02-07T01:48:35.062Z,43.33
2019-02-07T01:51:04.203Z,36.50
2019-02-07T01:53:33.481Z,42.10
2019-02-07T01:56:02.490Z,39.73
2019-02-07T01:58:31.493Z,40.40
2019-02-07T02:01:00.479Z,36.03
2019-02-07T02:03:29.492Z,31.50
2019-02-07T02:05:58.826Z,39.70
2019-02-07T02:08:27.808Z,37.37
2019-02-07T02:10:56.874Z,45.30
2019-02-07T02:13:26.133Z,39.17
2019-02-07T02:15:55.139Z,41.43
2019-02-07T02:18:24.441Z,47.33
2019-02-07T02:20:53.480Z,47.13
2019-02-07T02:23:22.757Z,42.03
2019-02-07T02:25:51.791Z,45.90
2019-02-07T02:28:20.809Z,46.40
2019-02-07T02:30:49.801Z,42.27
2019-02-07T02:33:18.817Z,45.90
2019-02-07T02:35:48.081Z,46.73
2019-02-07T02:38:17.128Z,44.87
2019-02-07T02:40:46.041Z,44.30
2019-02-07T02:43:14.985Z,43.90
2019-02-07T02:45:44.277Z,49.33
2019-02-07T02:48:13.291Z,41.00
2019-02-07T02:50:42.206Z,40.27
2019-02-07T02:53:11.224Z,47.93
2019-02-07T02:55:42.585Z,45.23
2019-02-07T02:58:11.509Z,42.57
2019-02-07T03:01:05.982Z,39.23
2019-02-07T03:03:40.015Z,43.57
2019-02-07T03:06:27.192Z,41.23
2019-02-07T03:09:14.159Z,38.60
2019-02-07T03:12:01.044Z,37.43
2019-02-07T03:14:46.781Z,44.60
2019-02-07T03:17:30.912Z,40.87
2019-02-07T03:20:34.051Z,40.20
2019-02-07T03:23:24.886Z,42.03
2019-02-07T03:26:13.058Z,43.93
2019-02-07T03:29:04.444Z,71.50
2019-02-07T03:32:10.897Z,43.53
2019-02-07T03:34:51.932Z,45.27
2019-02-07T03:37:31.661Z,42.10
2019-02-07T03:40:15.416Z,46.43
2019-02-07T03:42:58.829Z,42.17
2019-02-07T03:46:03.017Z,46.37
2019-02-07T03:49:03.352Z,41.07
2019-02-07T03:51:53.494Z,40.43
2019-02-07T03:54:37.401Z,40.80
2019-02-07T03:57:34.535Z,40.33
2019-02-07T04:00:16.820Z,43.43
2019-02-07T04:03:13.950Z,51.60
2019-02-07T04:06:01.949Z,47.03
2019-02-07T04:08:48.552Z,41.53
2019-02-07T04:11:35.492Z,40.50
2019-02-07T04:14:24.462Z,39.13
2019-02-07T04:17:11.370Z,45.87
2019-02-07T04:19:59.455Z,45.23
2019-02-07T04:22:42.711Z,47.17
2019-02-07T04:25:48.939Z,46.07
2019-02-07T04:28:33.622Z,47.00
2019-02-07T04:31:11.333Z,47.87
2019-02-07T04:33:58.584Z,47.73
2019-02-07T04:36:46.598Z,46.67
2019-02-07T04:39:24.392Z,54.43
2019-02-07T04:42:14.173Z,51.50
2019-02-07T04:45:11.021Z,52.97
2019-02-07T04:48:02.125Z,44.87
2019-02-07T04:50:43.095Z,47.00
2019-02-07T04:53:30.142Z,50.10
2019-02-07T04:56:15.794Z,48.87
2019-02-07T04:59:02.770Z,43.03
2019-02-07T05:01:49.794Z,43.60
2019-02-07T05:04:41.342Z,46.03
2019-02-07T05:07:28.206Z,38.57
2019-02-07T05:10:16.816Z,39.83
2019-02-07T05:13:07.705Z,38.37
2019-02-07T05:15:51.483Z,38.57
2019-02-07T05:18:42.446Z,37.73
2019-02-07T05:21:33.274Z,39.73
2019-02-07T05:24:32.866Z,40.20
2019-02-07T05:27:27.162Z,38.20
2019-02-07T05:30:23.199Z,36.43
2019-02-07T05:33:00.912Z,32.27
2019-02-07T05:35:43.624Z,39.90
2019-02-07T05:38:21.997Z,33.03
2019-02-07T05:41:10.267Z,30.00
2019-02-07T05:43:57.622Z,30.60
2019-02-07T05:46:50.726Z,33.13
2019-02-07T05:49:30.804Z,32.33
2019-02-07T05:52:14.674Z,33.53
2019-02-07T05:55:01.793Z,33.50
2019-02-07T05:57:49.864Z,34.73
2019-02-07T06:00:36.575Z,32.63
2019-02-07T06:03:17.340Z,35.03
2019-02-07T06:06:06.029Z,31.93
2019-02-07T06:08:53.954Z,32.53
2019-02-07T06:11:40.676Z,33.20
2019-02-07T06:14:32.497Z,34.23
2019-02-07T06:17:19.586Z,31.60
2019-02-07T06:20:06.542Z,36.53
2019-02-07T06:22:43.174Z,35.70
2019-02-07T06:25:34.615Z,33.27
2019-02-07T06:28:25.309Z,34.50
2019-02-07T06:31:12.296Z,39.17
2019-02-07T06:34:09.761Z,59.13
2019-02-07T06:36:49.334Z,52.20
2019-02-07T06:39:46.328Z,87.10
2019-02-07T06:42:25.262Z,51.10
2019-02-07T06:45:25.265Z,43.57
2019-02-07T06:48:10.050Z,67.53
2019-02-07T06:50:57.308Z,40.90
2019-02-07T06:53:44.209Z,49.33
2019-02-07T06:56:32.198Z,45.63
2019-02-07T06:59:32.165Z,38.10
2019-02-07T07:02:18.843Z,39.10
2019-02-07T07:04:59.044Z,40.47
2019-02-07T07:07:47.580Z,48.53
2019-02-07T07:10:54.212Z,37.37
2019-02-07T07:13:44.954Z,32.30
2019-02-07T07:16:35.800Z,35.77
2019-02-07T07:19:22.914Z,35.50
2019-02-07T07:22:17.472Z,33.90
2019-02-07T07:25:05.577Z,41.47
2019-02-07T07:28:08.885Z,36.50
2019-02-07T07:30:57.226Z,42.87
2019-02-07T07:33:33.850Z,36.20
2019-02-07T07:36:12.414Z,39.60
2019-02-07T07:38:59.061Z,37.70
2019-02-07T07:41:53.214Z,36.67
2019-02-07T07:44:53.857Z,42.33
2019-02-07T07:47:47.984Z,47.53
2019-02-07T07:50:27.366Z,36.67
2019-02-07T07:53:16.543Z,37.87
2019-02-07T07:55:53.805Z,44.43
2019-02-07T07:59:01.335Z,38.17
2019-02-07T08:01:51.589Z,36.87
2019-02-07T08:04:38.860Z,41.90
2019-02-07T08:07:16.854Z,41.30
2019-02-07T08:09:59.822Z,37.47
2019-02-07T08:12:36.895Z,41.73
2019-02-07T08:15:27.403Z,41.97
2019-02-07T08:18:15.852Z,45.70
2019-02-07T08:21:03.366Z,39.67
2019-02-07T08:23:54.368Z,43.23
2019-02-07T08:26:42.643Z,35.03
2019-02-07T08:29:27.412Z,38.33
2019-02-07T08:32:08.958Z,35.23
2019-02-07T08:34:55.716Z,39.63
2019-02-07T08:37:52.825Z,37.73
2019-02-07T08:40:40.897Z,42.37
2019-02-07T08:43:47.414Z,33.20
2019-02-07T08:46:30.615Z,34.47
2019-02-07T08:49:11.464Z,31.77
2019-02-07T08:51:59.604Z,35.17
2019-02-07T08:54:52.856Z,33.43
2019-02-07T08:57:31.954Z,33.10
2019-02-07T09:00:13.754Z,36.43
2019-02-07T09:02:53.892Z,37.43
2019-02-07T09:05:44.717Z,40.60
2019-02-07T09:08:35.825Z,35.37
2019-02-07T09:11:24.089Z,37.97
2019-02-07T09:14:24.746Z,38.10
2019-02-07T09:17:14.599Z,34.37
2019-02-07T09:19:55.900Z,41.07
2019-02-07T09:22:46.783Z,38.13
2019-02-07T09:25:38.082Z,35.27
2019-02-07T09:28:28.922Z,37.07
2019-02-07T09:31:29.378Z,35.97
2019-02-07T09:34:23.344Z,41.00
2019-02-07T09:37:26.640Z,39.77
2019-02-07T09:40:27.106Z,30.53
2019-02-07T09:43:25.507Z,37.73
2019-02-07T09:46:29.108Z,37.33
2019-02-07T09:49:15.586Z,37.53
2019-02-07T09:51:51.165Z,38.63
2019-02-07T09:54:51.316Z,40.37
2019-02-07T09:57:36.241Z,41.80
2019-02-07T10:00:38.443Z,45.10
2019-02-07T10:03:26.531Z,41.30
2019-02-07T10:06:29.784Z,42.20
2019-02-07T10:09:16.787Z,40.10
2019-02-07T10:12:03.734Z,44.10
2019-02-07T10:14:45.751Z,49.67
2019-02-07T10:17:35.072Z,40.37
2019-02-07T10:20:39.344Z,42.23
2019-02-07T10:23:26.533Z,45.07
2019-02-07T10:26:20.832Z,41.40
2019-02-07T10:29:08.835Z,47.57
2019-02-07T10:31:56.214Z,48.33
2019-02-07T10:34:34.229Z,47.17
2019-02-07T10:37:29.977Z,46.30
2019-02-07T10:40:16.710Z,50.73
2019-02-07T10:43:10.525Z,40.10
2019-02-07T10:46:01.521Z,46.30
2019-02-07T10:48:49.617Z,45.93
2019-02-07T10:51:46.522Z,46.77
2019-02-07T10:54:33.169Z,45.50
2019-02-07T10:57:21.130Z,46.63
2019-02-07T11:00:08.537Z,47.30
2019-02-07T11:02:55.810Z,46.00
2019-02-07T11:05:42.997Z,41.73
2019-02-07T11:08:40.201Z,44.00
2019-02-07T11:11:18.805Z,44.03
2019-02-07T11:14:05.710Z,50.90
2019-02-07T11:16:44.643Z,48.27
2019-02-07T11:19:31.654Z,52.70
2019-02-07T11:22:19.902Z,50.60
2019-02-07T11:25:01.990Z,48.60
2019-02-07T11:27:50.112Z,48.43
2019-02-07T11:30:36.025Z,50.90
2019-02-07T11:33:25.932Z,51.37
2019-02-07T11:36:12.933Z,59.70
2019-02-07T11:39:04.678Z,54.83
2019-02-07T11:42:02.522Z,61.93
2019-02-07T11:44:50.695Z,56.40
2019-02-07T11:47:42.491Z,58.50
2019-02-07T11:50:33.418Z,63.50
2019-02-07T11:53:30.883Z,55.90
2019-02-07T11:56:34.063Z,64.20
2019-02-07T11:59:31.392Z,63.80
2019-02-07T12:02:22.738Z,58.87
2019-02-07T12:05:06.484Z,54.53
2019-02-07T12:07:53.393Z,52.23
2019-02-07T12:10:59.867Z,49.07
2019-02-07T12:13:50.535Z,49.40
2019-02-07T12:16:38.538Z,47.83
2019-02-07T12:19:29.406Z,51.30
2019-02-07T12:22:17.512Z,59.47
2019-02-07T12:25:04.347Z,54.37
2019-02-07T12:28:04.081Z,51.00
2019-02-07T12:30:51.129Z,51.83
2019-02-07T12:33:33.559Z,50.23
2019-02-07T12:36:16.675Z,47.80
2019-02-07T12:39:01.086Z,51.50
2019-02-07T12:41:55.018Z,49.50
2019-02-07T12:44:43.320Z,43.93
2019-02-07T12:47:30.055Z,46.43
2019-02-07T12:50:23.352Z,39.27
2019-02-07T12:53:18.954Z,48.10
2019-02-07T12:56:05.844Z,49.80
2019-02-07T12:58:52.966Z,44.37
2019-02-07T13:01:39.841Z,51.50
2019-02-07T13:04:26.965Z,54.00
2019-02-07T13:07:24.377Z,44.83
2019-02-07T13:10:22.073Z,43.67
2019-02-07T13:13:12.145Z,41.80
2019-02-07T13:16:09.319Z,40.03
2019-02-07T13:18:57.450Z,49.13
2019-02-07T13:21:44.389Z,47.23
2019-02-07T13:24:33.961Z,50.33
2019-02-07T13:27:25.272Z,46.60
2019-02-07T13:30:14.882Z,43.43
2019-02-07T13:33:02.065Z,46.37
2019-02-07T13:35:56.485Z,41.60
2019-02-07T13:38:44.949Z,45.10
2019-02-07T13:41:33.642Z,41.30
2019-02-07T13:44:15.431Z,43.30
2019-02-07T13:47:21.834Z,43.43
2019-02-07T13:50:18.910Z,37.77
2019-02-07T13:53:11.362Z,44.70
2019-02-07T13:55:58.466Z,42.47
2019-02-07T13:58:49.736Z,41.40
2019-02-07T14:01:28.701Z,43.73
2019-02-07T14:04:08.876Z,41.60
2019-02-07T14:06:56.922Z,41.50
2019-02-07T14:09:47.173Z,53.93
2019-02-07T14:12:41.555Z,45.70
2019-02-07T14:15:29.456Z,50.57
2019-02-07T14:18:17.757Z,41.80
2019-02-07T14:21:03.947Z,42.97
2019-02-07T14:24:01.188Z,40.63
2019-02-07T14:26:45.029Z,41.20
2019-02-07T14:29:32.150Z,38.00
2019-02-07T14:32:32.587Z,37.67
2019-02-07T14:35:36.327Z,40.07
2019-02-07T14:38:23.180Z,42.17
2019-02-07T14:41:01.049Z,45.97
2019-02-07T14:43:39.565Z,44.73
2019-02-07T14:46:28.013Z,41.20
2019-02-07T14:48:56.996Z,46.33
2019-02-07T14:51:26.042Z,47.63
2019-02-07T14:53:55.087Z,49.93
2019-02-07T14:56:24.752Z,38.83
2019-02-07T14:58:53.694Z,41.17
2019-02-07T15:01:22.830Z,48.73
2019-02-07T15:03:51.981Z,44.97
2019-02-07T15:06:21.026Z,50.97
2019-02-07T15:08:50.471Z,46.93
2019-02-07T15:11:19.512Z,53.80
2019-02-07T15:13:48.879Z,46.13
2019-02-07T15:16:18.063Z,49.87
2019-02-07T15:18:47.097Z,50.93
2019-02-07T15:21:16.042Z,47.00
2019-02-07T15:23:44.969Z,49.63
2019-02-07T15:26:14.017Z,54.67
2019-02-07T15:28:43.422Z,56.33
2019-02-07T15:31:12.406Z,48.20
2019-02-07T15:34:02.006Z,43.63
2019-02-07T15:36:31.107Z,40.20
2019-02-07T15:39:00.159Z,37.67
2019-02-07T15:41:29.223Z,41.70
2019-02-07T15:43:58.485Z,29.90
2019-02-07T15:46:27.770Z,32.37
2019-02-07T15:48:56.718Z,21.37
2019-02-07T15:51:25.727Z,17.80
2019-02-07T15:53:54.745Z,15.37
2019-02-07T15:56:24.057Z,13.57
2019-02-07T15:59:19.904Z,11.27
2019-02-07T16:02:08.061Z,8.47
2019-02-07T16:04:39.922Z,6.73
2019-02-07T16:07:08.953Z,8.33
2019-02-07T16:09:38.047Z,5.63
2019-02-07T16:12:07.046Z,3.87
2019-02-07T16:14:36.045Z,5.47
2019-02-07T16:17:05.062Z,8.53
2019-02-07T16:19:34.061Z,4.47
2019-02-07T16:22:03.076Z,5.80
2019-02-07T16:24:32.027Z,8.37
2019-02-07T16:27:00.927Z,4.87
2019-02-07T16:29:30.281Z,4.50
2019-02-07T16:31:59.654Z,6.20
2019-02-07T16:34:30.180Z,4.63
2019-02-07T16:36:59.457Z,5.87
2019-02-07T16:39:28.457Z,4.27
2019-02-07T16:42:05.881Z,4.43
2019-02-07T16:44:28.607Z,5.20
2019-02-07T16:46:57.916Z,5.53
2019-02-07T16:49:26.830Z,4.40
2019-02-07T16:51:55.742Z,5.23
2019-02-07T16:54:24.585Z,3.50
2019-02-07T16:56:53.499Z,3.30
2019-02-07T16:59:22.501Z,4.10
2019-02-07T17:01:51.762Z,3.30
2019-02-07T17:04:20.807Z,8.07
2019-02-07T17:06:49.778Z,2.70
2019-02-07T17:09:23.297Z,4.00
2019-02-07T17:11:52.541Z,3.13
2019-02-07T17:14:21.888Z,3.50
2019-02-07T17:16:51.131Z,4.43
2019-02-07T17:19:20.129Z,4.77
2019-02-07T17:21:49.109Z,6.43
2019-02-07T17:24:18.414Z,6.83
2019-02-07T17:26:47.417Z,5.13
2019-02-07T17:29:16.564Z,3.57
2019-02-07T17:31:45.398Z,3.63
2019-02-07T17:34:14.390Z,5.57
2019-02-07T17:36:43.334Z,9.23
2019-02-07T17:39:12.378Z,4.20
2019-02-07T17:41:41.694Z,3.53
2019-02-07T17:44:10.602Z,3.00
2019-02-07T17:46:40.079Z,4.67
2019-02-07T17:49:09.065Z,5.67
2019-02-07T17:51:38.405Z,3.77
2019-02-07T17:54:18.274Z,2.97
2019-02-07T17:56:37.993Z,4.00
2019-02-07T17:59:07.013Z,3.80
2019-02-07T18:01:36.236Z,5.47
2019-02-07T18:04:05.714Z,2.70
2019-02-07T18:06:34.713Z,3.37
2019-02-07T18:09:05.524Z,3.10
2019-02-07T18:11:34.783Z,3.37
2019-02-07T18:14:03.728Z,3.73
2019-02-07T18:16:33.106Z,5.10
2019-02-07T18:19:02.089Z,4.70
2019-02-07T18:21:34.244Z,5.73
2019-02-07T18:24:02.029Z,6.13
2019-02-07T18:26:30.950Z,6.60
2019-02-07T18:28:59.953Z,16.30
2019-02-07T18:31:28.966Z,8.63
2019-02-07T18:33:57.983Z,7.03
2019-02-07T18:36:27.058Z,11.33
2019-02-07T18:38:56.052Z,9.07
2019-02-07T18:41:24.979Z,14.43
2019-02-07T18:43:53.908Z,30.97
2019-02-07T18:46:22.873Z,32.00
2019-02-07T18:48:51.777Z,14.33
2019-02-07T18:51:20.886Z,30.07
2019-02-07T18:53:49.919Z,42.80
2019-02-07T18:56:18.960Z,19.83
2019-02-07T18:58:48.047Z,12.03
2019-02-07T19:01:17.211Z,72.00
2019-02-07T19:03:46.500Z,22.17
2019-02-07T19:06:15.601Z,21.10
2019-02-07T19:08:44.635Z,28.57
2019-02-07T19:11:13.651Z,26.30
2019-02-07T19:13:42.695Z,26.70
2019-02-07T19:16:16.873Z,19.67
2019-02-07T19:18:46.114Z,21.70
2019-02-07T19:21:15.213Z,13.97
2019-02-07T19:23:44.168Z,21.07
2019-02-07T19:26:13.562Z,10.53
2019-02-07T19:28:42.707Z,10.67
2019-02-07T19:31:11.705Z,10.60
2019-02-07T19:33:40.917Z,7.33
2019-02-07T19:36:09.837Z,10.57
2019-02-07T19:38:38.753Z,6.90
2019-02-07T19:41:07.595Z,7.13
2019-02-07T19:43:36.589Z,6.60
2019-02-07T19:46:05.582Z,6.23
2019-02-07T19:48:34.510Z,5.70
2019-02-07T19:51:03.904Z,5.97
2019-02-07T19:53:32.892Z,7.43
2019-02-07T19:56:02.042Z,5.93
2019-02-07T19:58:31.372Z,4.90
2019-02-07T20:01:00.388Z,6.77
2019-02-07T20:03:29.482Z,6.53
2019-02-07T20:05:58.884Z,5.60
2019-02-07T20:08:28.336Z,4.97
2019-02-07T20:10:57.355Z,5.60
2019-02-07T20:13:26.354Z,5.27
2019-02-07T20:15:55.342Z,5.27
2019-02-07T20:18:24.311Z,5.23
2019-02-07T20:20:53.289Z,6.30
2019-02-07T20:23:22.566Z,6.33
2019-02-07T20:25:51.550Z,5.77
2019-02-07T20:28:20.552Z,5.63
2019-02-07T20:33:18.838Z,11.37
2019-02-07T20:35:47.821Z,18.07
2019-02-07T20:38:17.069Z,6.57
2019-02-07T20:40:46.610Z,6.27
2019-02-07T20:43:15.528Z,8.93
2019-02-07T20:45:44.533Z,9.10
2019-02-07T20:48:13.453Z,7.43
2019-02-07T20:50:42.786Z,8.27
2019-02-07T20:53:14.744Z,5.53
2019-02-07T20:55:43.660Z,4.83
2019-02-07T20:58:13.002Z,10.27
2019-02-07T21:00:42.344Z,6.97
2019-02-07T21:03:11.334Z,9.03
2019-02-07T21:05:40.337Z,6.40
2019-02-07T21:08:09.317Z,6.00
2019-02-07T21:10:38.430Z,5.80
2019-02-07T21:13:07.894Z,5.60
2019-02-07T21:15:37.119Z,8.37
2019-02-07T21:18:06.274Z,8.37
2019-02-07T21:20:36.716Z,6.57
2019-02-07T21:23:06.605Z,4.90
2019-02-07T21:25:42.045Z,4.67
2019-02-07T21:28:11.443Z,4.97
2019-02-07T21:30:40.467Z,4.13
2019-02-07T21:33:09.484Z,3.60
2019-02-07T21:35:38.498Z,4.50
2019-02-07T21:38:08.070Z,4.13
2019-02-07T21:40:37.069Z,4.63
2019-02-07T21:43:06.466Z,3.20
2019-02-07T21:45:36.059Z,4.53
2019-02-07T21:48:08.016Z,4.07
2019-02-07T21:50:37.056Z,5.07
2019-02-07T21:53:06.062Z,4.33
2019-02-07T21:55:35.262Z,4.57
2019-02-07T21:58:04.874Z,6.63
2019-02-07T22:00:35.956Z,5.93
2019-02-07T22:03:06.966Z,4.73
2019-02-07T22:05:55.077Z,5.03
2019-02-07T22:08:24.402Z,4.13
2019-02-07T22:10:53.673Z,4.87
2019-02-07T22:13:22.714Z,4.50
2019-02-07T22:15:51.562Z,4.77
2019-02-07T22:18:20.402Z,4.33
2019-02-07T22:20:49.674Z,4.43
2019-02-07T22:23:18.506Z,5.23
2019-02-07T22:25:47.429Z,4.63
2019-02-07T22:28:16.383Z,5.80
2019-02-07T22:30:45.578Z,5.00
2019-02-07T22:33:14.413Z,5.57
2019-02-07T22:35:43.417Z,5.80
2019-02-07T22:38:12.509Z,4.20
2019-02-07T22:40:43.781Z,4.63
2019-02-07T22:43:13.133Z,4.80
2019-02-07T22:45:41.989Z,5.40
2019-02-07T22:48:10.990Z,4.00
2019-02-07T22:50:39.905Z,5.23
2019-02-07T22:53:08.968Z,5.43
2019-02-07T22:55:38.092Z,5.90
2019-02-07T22:58:08.645Z,4.80
2019-02-07T23:01:40.096Z,4.03
2019-02-07T23:04:09.478Z,3.77
2019-02-07T23:06:38.494Z,3.77
2019-02-07T23:09:11.808Z,6.97
2019-02-07T23:11:40.782Z,4.30
2019-02-07T23:14:10.321Z,3.23
2019-02-07T23:16:39.426Z,3.60
2019-02-07T23:19:08.539Z,2.80
2019-02-07T23:21:37.707Z,5.23
2019-02-07T23:24:06.760Z,2.93
2019-02-07T23:26:35.870Z,4.67
2019-02-07T23:29:06.326Z,4.03
2019-02-07T23:31:35.331Z,3.87
2019-02-07T23:34:05.322Z,4.60
2019-02-07T23:36:34.696Z,3.40
2019-02-07T23:39:06.053Z,3.73
2019-02-07T23:41:35.356Z,4.30
2019-02-07T23:44:05.775Z,5.33
2019-02-07T23:46:34.702Z,3.77
2019-02-07T23:49:04.466Z,4.43
2019-02-07T23:51:33.462Z,4.43
2019-02-07T23:54:02.481Z,5.83
2019-02-07T23:56:31.435Z,5.63
2019-02-07T23:59:00.413Z,5.70
